Pettigrew, AR (72752)

2:49 AM CST on February 01, 2015 (GMT -0600)
Pettigrew | Change Station
CLOSE
Current Station
Personal Weather Station
Location: Pettigrew, AR
Elevation: 1873 ft
Nearby Weather Stations

Elev 1873 ft 35.82 °N, 93.64 °W | Updated 2 minutes ago

Rain
Rain
37.6 °F
Feels Like 38 °F
N
2.2
Wind Variable Wind from SSW

Today
High -- | Low -- °F
--% Chance of Precip.
Yesterday
High -- | Low -- °F
Precip. -- in
7:14 AM 5:41 PM
Waxing Gibbous, 94% visible
Pressure 29.79 in
Visibility 5.0 miles
Clouds Overcast 7000 ft
Windchill 38 °F
Dew Point 36 °F
Humidity 94%
Rainfall 0.46 in
Snow Depth Not available.
UV 0 out of 12
Pollen 3.60 out of 12
Air Quality Not available.
Flu Activity Not available.
METAR KFYV 010753Z AUTO 17018G27KT 5SM RA BR OVC070 05/05 A2978 RMK AO2 PK WND 18030/0743 SLP087 P0012 T00500050

More Conditions Fewer Conditions

Pressure 29.79 in
Visibility 5.0 miles
Clouds Overcast 7000 ft
Windchill 38 °F
Dew Point 36 °F
Humidity 94%
Rainfall 0.46 in
Snow Depth Not available.
UV 0 out of 12
Pollen 3.60 out of 12
Air Quality Not available.
Flu Activity Not available.
METAR KFYV 010753Z AUTO 17018G27KT 5SM RA BR OVC070 05/05 A2978 RMK AO2 PK WND 18030/0743 SLP087 P0012 T00500050

More Conditions Fewer Conditions

Nowcast | as of 2:44 am CST on February 1, 2015

At 2:45 am...National Weather Service radars continued to indicate a large area of rainfall affecting a portion of eastern Oklahoma and all of northwest Arkansas. This activity was now all located east of Highway 75. Precipitation amounts continued to be light. Through 5 am...rain or drizzle will continue across a portion of eastern Oklahoma and most of northwest Arkansas. Precipitation will remain light... and will slowly be ending from west to east.

×

10-Day Weather Forecast

Almanac

Astronomy

Feb. 01, 2015 Rise Set
Actual Time
Civil Twilight
Nautical Twilight
Astronomical Twilight
Moon
Length of Visible Light
Length of Day
Tomorrow will be .
, % of the Moon is Illuminated

Today's Extremes

State Highs State Lows

Community

WunderPhotos

Upload Photos

1,792,338 photos uploaded!

WunderBlogs® & News

Nearby

Air Quality

  Air Quality AQ Index Pollutant
Not available.

Snow Depth

Station Depth Elevation

Earthquake Activity

City Distance Mag. Time & Date
Minimum magnitude displayed is 2.5.

Coastal Water Temperatures

Place Temperature

Nearby Weather Stations